sensor_id;sensor_type;location;lat;lon;timestamp;pressure;altitude;pressure_sealevel;temperature;humidity
47985;BME280;33753;52.912;-7.342;2023-01-29T00:02:00;101871.50;;;2.76;100.00
47985;BME280;33753;52.912;-7.342;2023-01-29T00:04:31;101867.28;;;2.72;100.00
47985;BME280;33753;52.912;-7.342;2023-01-29T00:06:59;101871.66;;;2.73;100.00
47985;BME280;33753;52.912;-7.342;2023-01-29T00:09:27;101875.88;;;2.77;100.00
47985;BME280;33753;52.912;-7.342;2023-01-29T00:11:55;101876.84;;;2.76;100.00
47985;BME280;33753;52.912;-7.342;2023-01-29T00:14:23;101872.44;;;2.75;100.00
47985;BME280;33753;52.912;-7.342;2023-01-29T00:16:53;101869.69;;;2.76;100.00
47985;BME280;33753;52.912;-7.342;2023-01-29T00:19:21;101873.91;;;2.81;100.00
47985;BME280;33753;52.912;-7.342;2023-01-29T00:21:51;101879.53;;;2.76;100.00
47985;BME280;33753;52.912;-7.342;2023-01-29T00:24:19;101881.06;;;2.80;100.00
47985;BME280;33753;52.912;-7.342;2023-01-29T00:26:48;101891.59;;;2.83;100.00
47985;BME280;33753;52.912;-7.342;2023-01-29T00:29:16;101888.81;;;2.85;100.00
47985;BME280;33753;52.912;-7.342;2023-01-29T00:31:45;101886.81;;;2.88;100.00
47985;BME280;33753;52.912;-7.342;2023-01-29T00:34:14;101891.41;;;2.86;100.00
47985;BME280;33753;52.912;-7.342;2023-01-29T00:36:43;101886.72;;;2.90;100.00
47985;BME280;33753;52.912;-7.342;2023-01-29T00:39:13;101897.44;;;2.90;100.00
47985;BME280;33753;52.912;-7.342;2023-01-29T00:41:41;101896.41;;;2.92;100.00
47985;BME280;33753;52.912;-7.342;2023-01-29T00:44:27;101889.50;;;2.88;100.00
47985;BME280;33753;52.912;-7.342;2023-01-29T00:47:12;101877.09;;;2.87;100.00
47985;BME280;33753;52.912;-7.342;2023-01-29T00:49:57;101877.34;;;2.83;100.00
47985;BME280;33753;52.912;-7.342;2023-01-29T00:52:25;101870.28;;;2.82;100.00
47985;BME280;33753;52.912;-7.342;2023-01-29T00:54:57;101877.44;;;2.81;100.00
47985;BME280;33753;52.912;-7.342;2023-01-29T00:57:27;101873.19;;;2.77;100.00
47985;BME280;33753;52.912;-7.342;2023-01-29T00:59:55;101863.31;;;2.79;100.00
47985;BME280;33753;52.912;-7.342;2023-01-29T01:02:23;101863.97;;;2.83;100.00
47985;BME280;33753;52.912;-7.342;2023-01-29T01:05:09;101856.75;;;2.85;100.00
47985;BME280;33753;52.912;-7.342;2023-01-29T01:07:39;101859.53;;;2.83;100.00
47985;BME280;33753;52.912;-7.342;2023-01-29T01:10:11;101857.25;;;2.75;100.00
47985;BME280;33753;52.912;-7.342;2023-01-29T01:12:49;101849.84;;;2.81;100.00
47985;BME280;33753;52.912;-7.342;2023-01-29T01:15:18;101840.38;;;2.75;100.00
47985;BME280;33753;52.912;-7.342;2023-01-29T01:17:46;101841.50;;;2.71;100.00
47985;BME280;33753;52.912;-7.342;2023-01-29T01:20:15;101841.59;;;2.69;100.00
47985;BME280;33753;52.912;-7.342;2023-01-29T01:22:44;101839.19;;;2.65;100.00
47985;BME280;33753;52.912;-7.342;2023-01-29T01:25:14;101837.28;;;2.67;100.00
47985;BME280;33753;52.912;-7.342;2023-01-29T01:27:43;101835.72;;;2.63;100.00
47985;BME280;33753;52.912;-7.342;2023-01-29T01:30:11;101835.53;;;2.66;100.00
47985;BME280;33753;52.912;-7.342;2023-01-29T01:32:41;101831.00;;;2.68;100.00
47985;BME280;33753;52.912;-7.342;2023-01-29T01:35:10;101823.66;;;2.71;100.00
47985;BME280;33753;52.912;-7.342;2023-01-29T01:37:39;101827.47;;;2.67;100.00
47985;BME280;33753;52.912;-7.342;2023-01-29T01:40:10;101828.31;;;2.68;100.00
47985;BME280;33753;52.912;-7.342;2023-01-29T01:42:47;101830.81;;;2.71;100.00
47985;BME280;33753;52.912;-7.342;2023-01-29T01:45:17;101831.75;;;2.70;100.00
47985;BME280;33753;52.912;-7.342;2023-01-29T01:47:46;101831.56;;;2.73;100.00
47985;BME280;33753;52.912;-7.342;2023-01-29T01:50:17;101834.25;;;2.73;100.00
47985;BME280;33753;52.912;-7.342;2023-01-29T01:52:48;101836.91;;;2.73;100.00
47985;BME280;33753;52.912;-7.342;2023-01-29T01:55:18;101836.06;;;2.72;100.00
47985;BME280;33753;52.912;-7.342;2023-01-29T01:57:51;101838.47;;;2.77;100.00
47985;BME280;33753;52.912;-7.342;2023-01-29T02:00:20;101834.84;;;2.78;100.00
47985;BME280;33753;52.912;-7.342;2023-01-29T02:02:49;101845.44;;;2.80;100.00
47985;BME280;33753;52.912;-7.342;2023-01-29T02:05:34;101835.66;;;2.80;100.00
47985;BME280;33753;52.912;-7.342;2023-01-29T02:08:22;101841.00;;;2.80;100.00
47985;BME280;33753;52.912;-7.342;2023-01-29T02:11:09;101840.72;;;2.85;100.00
47985;BME280;33753;52.912;-7.342;2023-01-29T02:13:40;101833.56;;;2.85;100.00
47985;BME280;33753;52.912;-7.342;2023-01-29T02:16:08;101830.03;;;2.85;100.00
47985;BME280;33753;52.912;-7.342;2023-01-29T02:18:36;101829.34;;;2.81;100.00
47985;BME280;33753;52.912;-7.342;2023-01-29T02:21:08;101829.34;;;2.81;100.00
47985;BME280;33753;52.912;-7.342;2023-01-29T02:23:45;101819.75;;;2.77;100.00
47985;BME280;33753;52.912;-7.342;2023-01-29T02:26:24;101822.44;;;2.77;100.00
47985;BME280;33753;52.912;-7.342;2023-01-29T02:29:00;101815.53;;;2.73;100.00
47985;BME280;33753;52.912;-7.342;2023-01-29T02:31:50;101812.72;;;2.76;100.00
47985;BME280;33753;52.912;-7.342;2023-01-29T02:34:24;101810.06;;;2.76;100.00
47985;BME280;33753;52.912;-7.342;2023-01-29T02:36:57;101804.38;;;2.66;100.00
47985;BME280;33753;52.912;-7.342;2023-01-29T02:39:30;101804.19;;;2.69;100.00
47985;BME280;33753;52.912;-7.342;2023-01-29T02:42:03;101789.00;;;2.70;100.00
47985;BME280;33753;52.912;-7.342;2023-01-29T02:44:37;101791.59;;;2.71;100.00
47985;BME280;33753;52.912;-7.342;2023-01-29T02:47:09;101783.66;;;2.70;100.00
47985;BME280;33753;52.912;-7.342;2023-01-29T02:49:43;101787.44;;;2.66;100.00
47985;BME280;33753;52.912;-7.342;2023-01-29T02:52:16;101785.75;;;2.65;100.00
47985;BME280;33753;52.912;-7.342;2023-01-29T02:54:48;101776.75;;;2.66;100.00
47985;BME280;33753;52.912;-7.342;2023-01-29T02:57:18;101777.47;;;2.69;100.00
47985;BME280;33753;52.912;-7.342;2023-01-29T02:59:51;101774.78;;;2.69;100.00
47985;BME280;33753;52.912;-7.342;2023-01-29T03:02:23;101769.53;;;2.68;100.00
47985;BME280;33753;52.912;-7.342;2023-01-29T03:04:55;101764.00;;;2.71;100.00
47985;BME280;33753;52.912;-7.342;2023-01-29T03:07:26;101763.16;;;2.70;100.00
47985;BME280;33753;52.912;-7.342;2023-01-29T03:10:27;101753.69;;;2.65;100.00
47985;BME280;33753;52.912;-7.342;2023-01-29T03:12:59;101758.84;;;2.68;100.00
47985;BME280;33753;52.912;-7.342;2023-01-29T03:15:31;101754.63;;;2.64;100.00
47985;BME280;33753;52.912;-7.342;2023-01-29T03:18:20;101750.22;;;2.63;100.00
47985;BME280;33753;52.912;-7.342;2023-01-29T03:20:53;101750.16;;;2.64;100.00
47985;BME280;33753;52.912;-7.342;2023-01-29T03:23:26;101748.16;;;2.68;100.00
47985;BME280;33753;52.912;-7.342;2023-01-29T03:26:13;101747.22;;;2.69;100.00
47985;BME280;33753;52.912;-7.342;2023-01-29T03:28:59;101746.25;;;2.70;100.00
47985;BME280;33753;52.912;-7.342;2023-01-29T03:31:47;101750.47;;;2.74;100.00
47985;BME280;33753;52.912;-7.342;2023-01-29T03:34:35;101744.00;;;2.78;100.00
47985;BME280;33753;52.912;-7.342;2023-01-29T03:37:06;101744.72;;;2.82;100.00
47985;BME280;33753;52.912;-7.342;2023-01-29T03:39:36;101752.53;;;2.85;100.00
47985;BME280;33753;52.912;-7.342;2023-01-29T03:42:08;101745.38;;;2.85;100.00
47985;BME280;33753;52.912;-7.342;2023-01-29T03:44:41;101746.16;;;2.87;100.00
47985;BME280;33753;52.912;-7.342;2023-01-29T03:47:23;101740.72;;;2.89;100.00
47985;BME280;33753;52.912;-7.342;2023-01-29T03:49:56;101735.47;;;2.87;100.00
47985;BME280;33753;52.912;-7.342;2023-01-29T03:52:29;101732.63;;;2.90;100.00
47985;BME280;33753;52.912;-7.342;2023-01-29T03:55:01;101729.84;;;2.92;100.00
47985;BME280;33753;52.912;-7.342;2023-01-29T03:57:35;101718.28;;;2.91;100.00
47985;BME280;33753;52.912;-7.342;2023-01-29T04:00:10;101707.44;;;2.94;100.00
47985;BME280;33753;52.912;-7.342;2023-01-29T04:03:00;101700.75;;;3.02;100.00
47985;BME280;33753;52.912;-7.342;2023-01-29T04:05:33;101683.94;;;3.00;100.00
47985;BME280;33753;52.912;-7.342;2023-01-29T04:08:14;101686.63;;;3.00;100.00
47985;BME280;33753;52.912;-7.342;2023-01-29T04:10:44;101692.56;;;3.05;100.00
47985;BME280;33753;52.912;-7.342;2023-01-29T04:13:14;101682.53;;;3.08;100.00
47985;BME280;33753;52.912;-7.342;2023-01-29T04:15:45;101688.56;;;3.12;100.00
47985;BME280;33753;52.912;-7.342;2023-01-29T04:18:16;101689.22;;;3.16;100.00
47985;BME280;33753;52.912;-7.342;2023-01-29T04:21:02;101686.44;;;3.17;100.00
47985;BME280;33753;52.912;-7.342;2023-01-29T04:23:33;101683.78;;;3.17;100.00
47985;BME280;33753;52.912;-7.342;2023-01-29T04:26:06;101685.50;;;3.18;100.00
47985;BME280;33753;52.912;-7.342;2023-01-29T04:28:42;101679.22;;;3.19;100.00
47985;BME280;33753;52.912;-7.342;2023-01-29T04:31:14;101669.88;;;3.26;100.00
47985;BME280;33753;52.912;-7.342;2023-01-29T04:33:46;101679.03;;;3.22;100.00
47985;BME280;33753;52.912;-7.342;2023-01-29T04:36:18;101680.38;;;3.29;100.00
47985;BME280;33753;52.912;-7.342;2023-01-29T04:38:56;101688.19;;;3.33;100.00
47985;BME280;33753;52.912;-7.342;2023-01-29T04:41:27;101681.06;;;3.33;100.00
47985;BME280;33753;52.912;-7.342;2023-01-29T04:43:59;101671.19;;;3.34;100.00
47985;BME280;33753;52.912;-7.342;2023-01-29T04:46:32;101675.50;;;3.36;100.00
47985;BME280;33753;52.912;-7.342;2023-01-29T04:49:06;101672.75;;;3.38;100.00
47985;BME280;33753;52.912;-7.342;2023-01-29T04:51:41;101669.97;;;3.39;100.00
47985;BME280;33753;52.912;-7.342;2023-01-29T04:54:13;101672.53;;;3.41;100.00
47985;BME280;33753;52.912;-7.342;2023-01-29T04:56:46;101672.75;;;3.38;100.00
47985;BME280;33753;52.912;-7.342;2023-01-29T04:59:20;101669.88;;;3.41;100.00
47985;BME280;33753;52.912;-7.342;2023-01-29T05:01:50;101674.38;;;3.40;100.00
47985;BME280;33753;52.912;-7.342;2023-01-29T05:04:21;101673.38;;;3.41;100.00
47985;BME280;33753;52.912;-7.342;2023-01-29T05:06:50;101677.69;;;3.44;100.00
47985;BME280;33753;52.912;-7.342;2023-01-29T05:09:19;101666.06;;;3.45;100.00
47985;BME280;33753;52.912;-7.342;2023-01-29T05:11:47;101671.31;;;3.46;100.00
47985;BME280;33753;52.912;-7.342;2023-01-29T05:14:17;101664.03;;;3.49;100.00
47985;BME280;33753;52.912;-7.342;2023-01-29T05:16:46;101658.97;;;3.44;100.00
47985;BME280;33753;52.912;-7.342;2023-01-29T05:19:18;101653.16;;;3.52;100.00
47985;BME280;33753;52.912;-7.342;2023-01-29T05:21:48;101647.81;;;3.52;100.00
47985;BME280;33753;52.912;-7.342;2023-01-29T05:24:17;101651.13;;;3.55;100.00
47985;BME280;33753;52.912;-7.342;2023-01-29T05:26:47;101643.22;;;3.54;100.00
47985;BME280;33753;52.912;-7.342;2023-01-29T05:29:33;101637.97;;;3.52;100.00
47985;BME280;33753;52.912;-7.342;2023-01-29T05:32:01;101632.31;;;3.57;100.00
47985;BME280;33753;52.912;-7.342;2023-01-29T05:34:29;101630.53;;;3.57;100.00
47985;BME280;33753;52.912;-7.342;2023-01-29T05:36:59;101635.97;;;3.56;100.00
47985;BME280;33753;52.912;-7.342;2023-01-29T05:39:27;101634.13;;;3.56;100.00
47985;BME280;33753;52.912;-7.342;2023-01-29T05:41:55;101630.53;;;3.57;100.00
47985;BME280;33753;52.912;-7.342;2023-01-29T05:44:23;101633.94;;;3.59;100.00
47985;BME280;33753;52.912;-7.342;2023-01-29T05:46:52;101633.84;;;3.61;100.00
47985;BME280;33753;52.912;-7.342;2023-01-29T05:49:20;101630.13;;;3.63;100.00
47985;BME280;33753;52.912;-7.342;2023-01-29T05:51:48;101624.56;;;3.67;100.00
47985;BME280;33753;52.912;-7.342;2023-01-29T05:54:18;101616.34;;;3.70;100.00
47985;BME280;33753;52.912;-7.342;2023-01-29T05:56:46;101612.81;;;3.69;100.00
47985;BME280;33753;52.912;-7.342;2023-01-29T05:59:14;101614.72;;;3.67;100.00
47985;BME280;33753;52.912;-7.342;2023-01-29T06:01:42;101618.81;;;3.73;100.00
47985;BME280;33753;52.912;-7.342;2023-01-29T06:04:10;101613.28;;;3.76;100.00
47985;BME280;33753;52.912;-7.342;2023-01-29T06:06:38;101616.72;;;3.78;100.00
47985;BME280;33753;52.912;-7.342;2023-01-29T06:09:08;101613.09;;;3.79;100.00
47985;BME280;33753;52.912;-7.342;2023-01-29T06:11:38;101617.28;;;3.83;100.00
47985;BME280;33753;52.912;-7.342;2023-01-29T06:14:06;101607.72;;;3.79;100.00
47985;BME280;33753;52.912;-7.342;2023-01-29T06:16:34;101611.25;;;3.79;100.00
47985;BME280;33753;52.912;-7.342;2023-01-29T06:19:02;101609.34;;;3.82;100.00
47985;BME280;33753;52.912;-7.342;2023-01-29T06:21:30;101602.72;;;3.87;100.00
47985;BME280;33753;52.912;-7.342;2023-01-29T06:23:59;101609.91;;;3.87;100.00
47985;BME280;33753;52.912;-7.342;2023-01-29T06:26:27;101604.53;;;3.87;100.00
47985;BME280;33753;52.912;-7.342;2023-01-29T06:28:57;101595.25;;;3.92;100.00
47985;BME280;33753;52.912;-7.342;2023-01-29T06:31:25;101601.56;;;3.91;100.00
47985;BME280;33753;52.912;-7.342;2023-01-29T06:34:04;101597.94;;;3.92;100.00
47985;BME280;33753;52.912;-7.342;2023-01-29T06:36:33;101602.25;;;3.95;100.00
47985;BME280;33753;52.912;-7.342;2023-01-29T06:39:01;101599.47;;;3.96;100.00
47985;BME280;33753;52.912;-7.342;2023-01-29T06:41:29;101603.75;;;3.99;100.00
47985;BME280;33753;52.912;-7.342;2023-01-29T06:43:59;101600.97;;;4.01;100.00
47985;BME280;33753;52.912;-7.342;2023-01-29T06:46:27;101595.63;;;4.01;100.00
47985;BME280;33753;52.912;-7.342;2023-01-29T06:48:56;101599.34;;;3.98;100.00
47985;BME280;33753;52.912;-7.342;2023-01-29T06:51:24;101603.25;;;4.07;100.00
47985;BME280;33753;52.912;-7.342;2023-01-29T06:53:52;101604.19;;;4.06;100.00
47985;BME280;33753;52.912;-7.342;2023-01-29T06:56:22;101607.44;;;4.11;100.00
47985;BME280;33753;52.912;-7.342;2023-01-29T06:58:50;101597.69;;;4.10;100.00
47985;BME280;33753;52.912;-7.342;2023-01-29T07:01:20;101603.03;;;4.10;100.00
47985;BME280;33753;52.912;-7.342;2023-01-29T07:04:01;101596.72;;;4.11;100.00
47985;BME280;33753;52.912;-7.342;2023-01-29T07:06:30;101600.19;;;4.13;100.00
47985;BME280;33753;52.912;-7.342;2023-01-29T07:08:58;101595.97;;;4.09;100.00
47985;BME280;33753;52.912;-7.342;2023-01-29T07:11:26;101588.69;;;4.11;100.00
47985;BME280;33753;52.912;-7.342;2023-01-29T07:13:54;101587.53;;;4.15;100.00
47985;BME280;33753;52.912;-7.342;2023-01-29T07:16:24;101585.59;;;4.17;100.00
47985;BME280;33753;52.912;-7.342;2023-01-29T07:18:52;101594.41;;;4.19;100.00
47985;BME280;33753;52.912;-7.342;2023-01-29T07:21:21;101581.97;;;4.18;100.00
47985;BME280;33753;52.912;-7.342;2023-01-29T07:23:49;101570.50;;;4.16;100.00
47985;BME280;33753;52.912;-7.342;2023-01-29T07:26:17;101561.72;;;4.14;100.00
47985;BME280;33753;52.912;-7.342;2023-01-29T07:28:45;101567.63;;;4.19;100.00
47985;BME280;33753;52.912;-7.342;2023-01-29T07:31:14;101558.66;;;4.20;100.00
47985;BME280;33753;52.912;-7.342;2023-01-29T07:33:44;101574.03;;;4.17;100.00
47985;BME280;33753;52.912;-7.342;2023-01-29T07:36:12;101565.91;;;4.18;100.00
47985;BME280;33753;52.912;-7.342;2023-01-29T07:38:40;101557.88;;;4.18;100.00
47985;BME280;33753;52.912;-7.342;2023-01-29T07:41:09;101562.47;;;4.16;100.00
47985;BME280;33753;52.912;-7.342;2023-01-29T07:43:38;101559.91;;;4.14;100.00
47985;BME280;33753;52.912;-7.342;2023-01-29T07:46:06;101561.81;;;4.12;100.00
47985;BME280;33753;52.912;-7.342;2023-01-29T07:48:34;101546.16;;;4.06;100.00
47985;BME280;33753;52.912;-7.342;2023-01-29T07:51:04;101548.94;;;4.05;100.00
47985;BME280;33753;52.912;-7.342;2023-01-29T07:53:33;101547.34;;;4.02;100.00
47985;BME280;33753;52.912;-7.342;2023-01-29T07:56:01;101553.75;;;4.00;100.00
47985;BME280;33753;52.912;-7.342;2023-01-29T07:58:31;101548.38;;;4.00;100.00
47985;BME280;33753;52.912;-7.342;2023-01-29T08:01:04;101565.41;;;3.98;100.00
47985;BME280;33753;52.912;-7.342;2023-01-29T08:03:32;101554.50;;;4.02;100.00
47985;BME280;33753;52.912;-7.342;2023-01-29T08:06:00;101559.09;;;4.00;100.00
47985;BME280;33753;52.912;-7.342;2023-01-29T08:08:30;101567.13;;;4.00;100.00
47985;BME280;33753;52.912;-7.342;2023-01-29T08:10:59;101567.22;;;3.98;100.00
47985;BME280;33753;52.912;-7.342;2023-01-29T08:13:27;101562.94;;;3.95;100.00
47985;BME280;33753;52.912;-7.342;2023-01-29T08:15:57;101564.44;;;4.00;100.00
47985;BME280;33753;52.912;-7.342;2023-01-29T08:18:26;101570.00;;;3.96;100.00
47985;BME280;33753;52.912;-7.342;2023-01-29T08:20:57;101568.97;;;3.99;100.00
47985;BME280;33753;52.912;-7.342;2023-01-29T08:23:26;101562.81;;;3.97;100.00
47985;BME280;33753;52.912;-7.342;2023-01-29T08:25:55;101566.19;;;4.01;100.00
47985;BME280;33753;52.912;-7.342;2023-01-29T08:28:23;101565.97;;;4.04;100.00
47985;BME280;33753;52.912;-7.342;2023-01-29T08:30:51;101562.63;;;4.00;100.00
47985;BME280;33753;52.912;-7.342;2023-01-29T08:33:20;101560.72;;;4.02;100.00
47985;BME280;33753;52.912;-7.342;2023-01-29T08:36:02;101568.75;;;4.02;100.00
47985;BME280;33753;52.912;-7.342;2023-01-29T08:38:31;101569.50;;;4.04;100.00
47985;BME280;33753;52.912;-7.342;2023-01-29T08:41:00;101573.06;;;4.05;100.00
47985;BME280;33753;52.912;-7.342;2023-01-29T08:43:29;101581.72;;;4.08;100.00
47985;BME280;33753;52.912;-7.342;2023-01-29T08:45:57;101587.06;;;4.08;100.00
47985;BME280;33753;52.912;-7.342;2023-01-29T08:48:25;101591.38;;;4.11;100.00
47985;BME280;33753;52.912;-7.342;2023-01-29T08:50:55;101585.38;;;4.07;100.00
47985;BME280;33753;52.912;-7.342;2023-01-29T08:53:23;101590.53;;;4.10;100.00
47985;BME280;33753;52.912;-7.342;2023-01-29T08:55:52;101581.63;;;4.10;100.00
47985;BME280;33753;52.912;-7.342;2023-01-29T08:58:21;101579.81;;;4.10;100.00
47985;BME280;33753;52.912;-7.342;2023-01-29T09:00:49;101586.03;;;4.11;100.00
47985;BME280;33753;52.912;-7.342;2023-01-29T09:03:18;101580.66;;;4.11;100.00
47985;BME280;33753;52.912;-7.342;2023-01-29T09:05:46;101578.56;;;4.16;100.00
47985;BME280;33753;52.912;-7.342;2023-01-29T09:08:14;101579.41;;;4.17;100.00
47985;BME280;33753;52.912;-7.342;2023-01-29T09:10:42;101582.06;;;4.17;100.00
47985;BME280;33753;52.912;-7.342;2023-01-29T09:13:10;101584.53;;;4.20;100.00
47985;BME280;33753;52.912;-7.342;2023-01-29T09:15:40;101592.09;;;4.27;100.00
47985;BME280;33753;52.912;-7.342;2023-01-29T09:18:08;101591.22;;;4.27;100.00
47985;BME280;33753;52.912;-7.342;2023-01-29T09:20:36;101599.13;;;4.28;100.00
47985;BME280;33753;52.912;-7.342;2023-01-29T09:23:04;101599.44;;;4.24;100.00
47985;BME280;33753;52.912;-7.342;2023-01-29T09:25:33;101604.38;;;4.30;100.00
47985;BME280;33753;52.912;-7.342;2023-01-29T09:28:01;101597.34;;;4.29;100.00
47985;BME280;33753;52.912;-7.342;2023-01-29T09:30:29;101593.38;;;4.35;100.00
47985;BME280;33753;52.912;-7.342;2023-01-29T09:33:00;101595.09;;;4.36;100.00
47985;BME280;33753;52.912;-7.342;2023-01-29T09:35:28;101592.31;;;4.37;100.00
47985;BME280;33753;52.912;-7.342;2023-01-29T09:37:56;101587.41;;;4.44;100.00
47985;BME280;33753;52.912;-7.342;2023-01-29T09:40:26;101590.28;;;4.41;100.00
47985;BME280;33753;52.912;-7.342;2023-01-29T09:42:58;101584.81;;;4.42;100.00
47985;BME280;33753;52.912;-7.342;2023-01-29T09:45:28;101587.41;;;4.44;100.00
47985;BME280;33753;52.912;-7.342;2023-01-29T09:47:58;101579.69;;;4.52;100.00
47985;BME280;33753;52.912;-7.342;2023-01-29T09:50:30;101580.03;;;4.47;100.00
47985;BME280;33753;52.912;-7.342;2023-01-29T09:53:00;101578.53;;;4.56;100.00
47985;BME280;33753;52.912;-7.342;2023-01-29T09:55:31;101580.88;;;4.61;100.00
47985;BME280;33753;52.912;-7.342;2023-01-29T09:58:02;101569.97;;;4.64;100.00
47985;BME280;33753;52.912;-7.342;2023-01-29T10:00:33;101580.47;;;4.67;100.00
47985;BME280;33753;52.912;-7.342;2023-01-29T10:03:12;101578.22;;;4.74;100.00
47985;BME280;33753;52.912;-7.342;2023-01-29T10:05:49;101570.06;;;4.75;100.00
47985;BME280;33753;52.912;-7.342;2023-01-29T10:11:00;101560.53;;;4.84;100.00
47985;BME280;33753;52.912;-7.342;2023-01-29T10:13:32;101563.31;;;4.95;100.00
47985;BME280;33753;52.912;-7.342;2023-01-29T10:16:10;101569.63;;;4.94;100.00
47985;BME280;33753;52.912;-7.342;2023-01-29T10:18:51;101568.06;;;5.05;100.00
47985;BME280;33753;52.912;-7.342;2023-01-29T10:24:10;101564.25;;;5.20;100.00
47985;BME280;33753;52.912;-7.342;2023-01-29T10:26:43;101559.31;;;5.27;100.00
47985;BME280;33753;52.912;-7.342;2023-01-29T10:29:13;101559.31;;;5.27;100.00
47985;BME280;33753;52.912;-7.342;2023-01-29T10:31:42;101559.75;;;5.33;100.00
47985;BME280;33753;52.912;-7.342;2023-01-29T10:34:15;101556.28;;;5.44;100.00
47985;BME280;33753;52.912;-7.342;2023-01-29T10:36:46;101549.84;;;5.47;100.00
47985;BME280;33753;52.912;-7.342;2023-01-29T10:39:17;101556.25;;;5.57;100.00
47985;BME280;33753;52.912;-7.342;2023-01-29T10:41:58;101550.22;;;5.66;100.00
47985;BME280;33753;52.912;-7.342;2023-01-29T10:44:32;101556.00;;;5.73;100.00
47985;BME280;33753;52.912;-7.342;2023-01-29T10:50:00;101552.28;;;5.87;100.00
47985;BME280;33753;52.912;-7.342;2023-01-29T10:52:34;101551.50;;;5.98;100.00
47985;BME280;33753;52.912;-7.342;2023-01-29T10:55:07;101548.13;;;6.07;100.00
47985;BME280;33753;52.912;-7.342;2023-01-29T10:57:49;101548.56;;;6.25;100.00
47985;BME280;33753;52.912;-7.342;2023-01-29T11:00:23;101542.41;;;6.36;100.00
47985;BME280;33753;52.912;-7.342;2023-01-29T11:02:52;101543.41;;;6.46;100.00
47985;BME280;33753;52.912;-7.342;2023-01-29T11:05:22;101541.59;;;6.58;100.00
47985;BME280;33753;52.912;-7.342;2023-01-29T11:07:55;101539.66;;;6.71;100.00
47985;BME280;33753;52.912;-7.342;2023-01-29T11:10:29;101542.59;;;6.80;100.00
47985;BME280;33753;52.912;-7.342;2023-01-29T11:12:59;101537.84;;;6.83;100.00
47985;BME280;33753;52.912;-7.342;2023-01-29T11:15:29;101532.09;;;6.88;100.00
47985;BME280;33753;52.912;-7.342;2023-01-29T11:18:05;101535.75;;;6.87;100.00
47985;BME280;33753;52.912;-7.342;2023-01-29T11:20:36;101529.41;;;6.99;100.00
47985;BME280;33753;52.912;-7.342;2023-01-29T11:23:04;101515.72;;;6.91;100.00
47985;BME280;33753;52.912;-7.342;2023-01-29T11:25:35;101515.47;;;6.94;100.00
47985;BME280;33753;52.912;-7.342;2023-01-29T11:28:03;101514.25;;;6.98;100.00
47985;BME280;33753;52.912;-7.342;2023-01-29T11:30:34;101511.81;;;6.95;100.00
47985;BME280;33753;52.912;-7.342;2023-01-29T11:33:08;101510.09;;;6.94;100.00
47985;BME280;33753;52.912;-7.342;2023-01-29T11:35:39;101500.22;;;6.95;100.00
47985;BME280;33753;52.912;-7.342;2023-01-29T11:38:08;101497.41;;;6.96;100.00
47985;BME280;33753;52.912;-7.342;2023-01-29T11:40:45;101486.88;;;6.93;100.00
47985;BME280;33753;52.912;-7.342;2023-01-29T11:43:18;101492.72;;;6.87;100.00
47985;BME280;33753;52.912;-7.342;2023-01-29T11:45:48;101492.47;;;6.90;100.00
47985;BME280;33753;52.912;-7.342;2023-01-29T11:48:17;101477.94;;;6.81;100.00
47985;BME280;33753;52.912;-7.342;2023-01-29T11:50:50;101477.81;;;6.94;100.00
47985;BME280;33753;52.912;-7.342;2023-01-29T11:53:23;101468.06;;;6.93;100.00
47985;BME280;33753;52.912;-7.342;2023-01-29T11:55:55;101467.69;;;6.98;100.00
47985;BME280;33753;52.912;-7.342;2023-01-29T11:58:24;101459.97;;;6.93;100.00
47985;BME280;33753;52.912;-7.342;2023-01-29T12:00:54;101445.06;;;7.00;100.00
47985;BME280;33753;52.912;-7.342;2023-01-29T12:03:27;101448.22;;;7.05;100.00
47985;BME280;33753;52.912;-7.342;2023-01-29T12:05:58;101444.31;;;7.09;100.00
47985;BME280;33753;52.912;-7.342;2023-01-29T12:08:28;101433.28;;;7.13;100.00
47985;BME280;33753;52.912;-7.342;2023-01-29T12:11:08;101427.06;;;7.12;100.00
47985;BME280;33753;52.912;-7.342;2023-01-29T12:13:36;101423.00;;;7.18;100.00
47985;BME280;33753;52.912;-7.342;2023-01-29T12:16:12;101424.34;;;7.23;100.00
47985;BME280;33753;52.912;-7.342;2023-01-29T12:18:43;101419.28;;;7.30;100.00
47985;BME280;33753;52.912;-7.342;2023-01-29T12:21:14;101420.75;;;7.34;100.00
47985;BME280;33753;52.912;-7.342;2023-01-29T12:23:46;101409.25;;;7.43;100.00
47985;BME280;33753;52.912;-7.342;2023-01-29T12:26:19;101395.66;;;7.45;100.00
47985;BME280;33753;52.912;-7.342;2023-01-29T12:28:53;101395.00;;;7.53;100.00
47985;BME280;33753;52.912;-7.342;2023-01-29T12:31:26;101387.88;;;7.63;100.00
47985;BME280;33753;52.912;-7.342;2023-01-29T12:33:58;101381.63;;;7.63;100.00
47985;BME280;33753;52.912;-7.342;2023-01-29T12:36:30;101379.00;;;7.72;100.00
47985;BME280;33753;52.912;-7.342;2023-01-29T12:38:59;101374.09;;;7.77;100.00
47985;BME280;33753;52.912;-7.342;2023-01-29T12:41:31;101368.72;;;7.77;100.00
47985;BME280;33753;52.912;-7.342;2023-01-29T12:44:03;101365.94;;;7.89;100.00
47985;BME280;33753;52.912;-7.342;2023-01-29T12:46:33;101363.44;;;7.97;100.00
47985;BME280;33753;52.912;-7.342;2023-01-29T12:49:07;101358.84;;;8.09;100.00
47985;BME280;33753;52.912;-7.342;2023-01-29T12:51:39;101363.88;;;8.23;100.00
47985;BME280;33753;52.912;-7.342;2023-01-29T12:54:10;101367.34;;;8.35;100.00
47985;BME280;33753;52.912;-7.342;2023-01-29T12:56:41;101358.06;;;8.49;100.00
47985;BME280;33753;52.912;-7.342;2023-01-29T12:59:14;101351.56;;;8.61;100.00
47985;BME280;33753;52.912;-7.342;2023-01-29T13:01:45;101349.34;;;8.76;100.00
47985;BME280;33753;52.912;-7.342;2023-01-29T13:04:17;101335.47;;;8.91;100.00
47985;BME280;33753;52.912;-7.342;2023-01-29T13:06:46;101329.53;;;9.07;100.00
47985;BME280;33753;52.912;-7.342;2023-01-29T13:09:19;101327.81;;;9.15;100.00
47985;BME280;33753;52.912;-7.342;2023-01-29T13:11:50;101315.63;;;9.31;100.00